Time;durP1;ratioP1;P1;durP2;ratioP2;P2;SDS_P1;SDS_P2;PMS_P1;PMS_P2;Temp;Humidity;BMP_temperature;BMP_pressure;BME280_temperature;BME280_humidity;BME280_pressure;Samples;Min_cycle;Max_cycle;Signal;HPM_P1;HPM_P2
2022/08/10 00:01:04;;;;;;;0.97;0.93;;;;;;;;;;5062111;28;20197;-82
2022/08/10 00:03:32;;;;;;;2.80;1.27;;;;;;;;;;5062400;28;20194;-82
2022/08/10 00:06:00;;;;;;;1.10;1.07;;;;;;;;;;5064977;28;20206;-81
2022/08/10 00:08:29;;;;;;;2.13;1.93;;;;;;;;;;5073225;28;20193;-82
2022/08/10 00:10:58;;;;;;;2.90;2.60;;;;;;;;;;5075642;28;20207;-82
2022/08/10 00:13:29;;;;;;;2.00;1.87;;;;;;;;;;5072643;28;20215;-82
2022/08/10 00:15:57;;;;;;;2.70;1.77;;;;;;;;;;5086532;28;20200;-82
2022/08/10 00:18:28;;;;;;;1.43;1.33;;;;;;;;;;5075342;28;20216;-81
2022/08/10 00:21:02;;;;;;;1.50;1.40;;;;;;;;;;5072378;28;20287;-82
2022/08/10 00:23:31;;;;;;;1.80;1.43;;;;;;;;;;5055925;28;20194;-82
2022/08/10 00:25:59;;;;;;;2.13;1.50;;;;;;;;;;5088064;28;20205;-82
2022/08/10 00:28:28;;;;;;;2.63;1.87;;;;;;;;;;5066428;28;20266;-81
2022/08/10 00:30:56;;;;;;;2.30;1.93;;;;;;;;;;5056268;28;20238;-81
2022/08/10 00:33:25;;;;;;;1.83;1.73;;;;;;;;;;5065429;28;20214;-82
2022/08/10 00:35:55;;;;;;;6.03;1.23;;;;;;;;;;5071510;28;20217;-81
2022/08/10 00:38:23;;;;;;;1.23;1.17;;;;;;;;;;5066077;28;20240;-82
2022/08/10 00:40:52;;;;;;;2.47;1.37;;;;;;;;;;5065897;28;20208;-82
2022/08/10 00:43:20;;;;;;;2.93;2.27;;;;;;;;;;5089611;28;20316;-82
2022/08/10 00:45:51;;;;;;;1.80;1.43;;;;;;;;;;5071350;28;20206;-82
2022/08/10 00:48:27;;;;;;;1.53;1.40;;;;;;;;;;5068334;28;20198;-81
2022/08/10 00:50:58;;;;;;;2.00;1.83;;;;;;;;;;5057289;28;20198;-82
2022/08/10 00:53:26;;;;;;;2.03;1.77;;;;;;;;;;5074571;28;20218;-81
2022/08/10 00:55:55;;;;;;;4.07;2.40;;;;;;;;;;5072018;28;20197;-81
2022/08/10 00:58:46;;;;;;;1.17;1.07;;;;;;;;;;5074373;28;20210;-81
2022/08/10 01:01:15;;;;;;;1.97;1.87;;;;;;;;;;5080676;28;20199;-81
2022/08/10 01:04:06;;;;;;;1.90;1.77;;;;;;;;;;5092178;28;20246;-81
2022/08/10 01:07:00;;;;;;;2.53;1.90;;;;;;;;;;5074382;28;20201;-81
2022/08/10 01:09:31;;;;;;;6.00;2.43;;;;;;;;;;5074441;28;20201;-82
2022/08/10 01:12:03;;;;;;;1.60;1.50;;;;;;;;;;5089397;28;20197;-81
2022/08/10 01:14:55;;;;;;;2.07;1.63;;;;;;;;;;5071370;28;20232;-81
2022/08/10 01:17:27;;;;;;;4.17;2.37;;;;;;;;;;5061627;28;20209;-81
2022/08/10 01:20:19;;;;;;;1.47;1.33;;;;;;;;;;5078320;28;20291;-81
2022/08/10 01:23:17;;;;;;;3.80;1.47;;;;;;;;;;5093612;28;20193;-81
2022/08/10 01:25:57;;;;;;;2.40;2.17;;;;;;;;;;5078269;28;20214;-81
2022/08/10 01:28:46;;;;;;;2.40;2.20;;;;;;;;;;5081985;28;20200;-81
2022/08/10 01:31:20;;;;;;;3.67;2.17;;;;;;;;;;5078090;28;20248;-81
2022/08/10 01:33:52;;;;;;;4.00;2.60;;;;;;;;;;5077791;28;20231;-81
2022/08/10 01:36:33;;;;;;;1.60;1.40;;;;;;;;;;5065116;28;20231;-81
2022/08/10 01:39:04;;;;;;;1.97;1.87;;;;;;;;;;5058342;28;20226;-81
2022/08/10 01:41:39;;;;;;;2.13;2.00;;;;;;;;;;5064625;28;20203;-81
2022/08/10 01:44:17;;;;;;;2.13;1.97;;;;;;;;;;5064966;28;20212;-81
2022/08/10 01:46:51;;;;;;;2.37;1.80;;;;;;;;;;5081819;28;20266;-81
2022/08/10 01:49:24;;;;;;;0.73;0.73;;;;;;;;;;5077542;28;20206;-81
2022/08/10 01:51:55;;;;;;;4.33;2.40;;;;;;;;;;5076722;28;20250;-81
2022/08/10 01:54:29;;;;;;;1.03;1.00;;;;;;;;;;5095134;28;20209;-81
2022/08/10 01:56:57;;;;;;;1.80;1.40;;;;;;;;;;5065839;28;20210;-82
2022/08/10 01:59:28;;;;;;;2.30;2.10;;;;;;;;;;5062396;28;20198;-82
2022/08/10 02:02:00;;;;;;;1.83;1.73;;;;;;;;;;5074379;28;20201;-81
2022/08/10 02:04:30;;;;;;;2.67;2.47;;;;;;;;;;5077213;28;20200;-81
2022/08/10 02:07:00;;;;;;;1.63;1.50;;;;;;;;;;5074439;28;20204;-81
2022/08/10 02:09:29;;;;;;;1.00;0.93;;;;;;;;;;5069775;28;20198;-81
2022/08/10 02:11:59;;;;;;;3.10;1.87;;;;;;;;;;5071759;28;20284;-81
2022/08/10 02:14:37;;;;;;;1.77;1.67;;;;;;;;;;5077730;28;20258;-82
2022/08/10 02:17:08;;;;;;;1.67;1.57;;;;;;;;;;5090597;28;20204;-82
2022/08/10 02:19:59;;;;;;;2.33;2.03;;;;;;;;;;5076505;28;20206;-82
2022/08/10 02:22:28;;;;;;;2.67;2.47;;;;;;;;;;5074503;28;20206;-82
2022/08/10 02:25:07;;;;;;;3.30;2.50;;;;;;;;;;5058568;28;20264;-82
2022/08/10 02:27:36;;;;;;;3.23;1.00;;;;;;;;;;5084907;28;20289;-82
2022/08/10 02:30:06;;;;;;;3.03;1.77;;;;;;;;;;5091162;28;20241;-82
2022/08/10 02:32:36;;;;;;;0.70;0.70;;;;;;;;;;5074354;28;20208;-82
2022/08/10 02:35:08;;;;;;;2.03;1.80;;;;;;;;;;5092039;28;20224;-83
2022/08/10 02:37:50;;;;;;;4.30;1.90;;;;;;;;;;5077202;28;20278;-82
2022/08/10 02:40:19;;;;;;;0.80;0.80;;;;;;;;;;5076912;28;20220;-82
2022/08/10 02:43:10;;;;;;;1.87;1.77;;;;;;;;;;5094696;28;20208;-82
2022/08/10 02:46:01;;;;;;;1.37;1.27;;;;;;;;;;5076849;28;20233;-82
2022/08/10 02:48:35;;;;;;;0.67;0.57;;;;;;;;;;5073994;28;20202;-82
2022/08/10 02:51:07;;;;;;;0.90;0.67;;;;;;;;;;5089836;28;20196;-82
2022/08/10 02:53:38;;;;;;;0.60;0.60;;;;;;;;;;5076767;28;20236;-82
2022/08/10 02:56:25;;;;;;;1.60;1.50;;;;;;;;;;5076366;28;20200;-82
2022/08/10 02:58:57;;;;;;;1.43;1.33;;;;;;;;;;5073338;28;20284;-82
2022/08/10 03:01:29;;;;;;;0.60;0.60;;;;;;;;;;5081455;28;20203;-82
2022/08/10 03:04:01;;;;;;;2.20;1.27;;;;;;;;;;5063500;28;20219;-82
2022/08/10 03:06:34;;;;;;;2.60;1.60;;;;;;;;;;5076253;28;20200;-82
2022/08/10 03:09:04;;;;;;;1.03;0.97;;;;;;;;;;5075334;28;20216;-82
2022/08/10 03:11:34;;;;;;;0.77;0.77;;;;;;;;;;5084290;28;20202;-82
2022/08/10 03:14:22;;;;;;;0.60;0.60;;;;;;;;;;5063956;28;20286;-82
2022/08/10 03:16:51;;;;;;;0.57;0.57;;;;;;;;;;5075550;28;20196;-82
2022/08/10 03:19:22;;;;;;;2.30;1.23;;;;;;;;;;5076358;28;20212;-82
2022/08/10 03:22:11;;;;;;;1.90;1.80;;;;;;;;;;5060966;28;20258;-82
2022/08/10 03:24:40;;;;;;;1.43;1.33;;;;;;;;;;5076299;28;20204;-82
2022/08/10 03:27:09;;;;;;;1.57;1.43;;;;;;;;;;5092861;28;20287;-82
2022/08/10 03:29:38;;;;;;;1.37;1.27;;;;;;;;;;5064093;28;20197;-82
2022/08/10 03:32:26;;;;;;;3.00;2.77;;;;;;;;;;5083171;28;20193;-82
2022/08/10 03:34:57;;;;;;;2.27;1.80;;;;;;;;;;5093655;28;20224;-82
2022/08/10 03:37:26;;;;;;;1.90;1.70;;;;;;;;;;5075180;28;20256;-82
2022/08/10 03:39:55;;;;;;;1.70;1.07;;;;;;;;;;5077601;28;20194;-82
2022/08/10 03:42:24;;;;;;;0.97;0.93;;;;;;;;;;5093876;28;20201;-82
2022/08/10 03:44:53;;;;;;;1.97;1.80;;;;;;;;;;5075693;28;20239;-82
2022/08/10 03:47:23;;;;;;;3.43;2.63;;;;;;;;;;5063581;28;20198;-82
2022/08/10 03:49:53;;;;;;;3.23;2.33;;;;;;;;;;5068223;28;20210;-82
2022/08/10 03:52:23;;;;;;;2.67;1.80;;;;;;;;;;5093408;28;20197;-82
2022/08/10 03:54:51;;;;;;;1.37;1.27;;;;;;;;;;5067599;28;20216;-82
2022/08/10 03:57:20;;;;;;;2.17;2.03;;;;;;;;;;5073928;28;20205;-82
2022/08/10 03:59:49;;;;;;;3.80;2.37;;;;;;;;;;5093969;28;20200;-82
2022/08/10 04:02:17;;;;;;;3.60;3.07;;;;;;;;;;5062220;28;20247;-82
2022/08/10 04:05:06;;;;;;;2.50;2.30;;;;;;;;;;5092437;28;20185;-82
2022/08/10 04:07:36;;;;;;;3.83;2.90;;;;;;;;;;5075195;28;20224;-82
2022/08/10 04:10:05;;;;;;;1.67;1.50;;;;;;;;;;5072239;28;20210;-82
2022/08/10 04:12:40;;;;;;;3.80;2.77;;;;;;;;;;5073420;28;20286;-81
2022/08/10 04:15:09;;;;;;;1.50;1.40;;;;;;;;;;5070340;28;20201;-82
2022/08/10 04:17:37;;;;;;;3.00;1.33;;;;;;;;;;5067720;28;20205;-82
2022/08/10 04:20:27;;;;;;;0.83;0.83;;;;;;;;;;5068498;28;20202;-82
2022/08/10 04:23:05;;;;;;;3.03;2.40;;;;;;;;;;5073754;28;20213;-82
2022/08/10 04:25:34;;;;;;;2.03;1.80;;;;;;;;;;5081937;28;20193;-82
2022/08/10 04:28:02;;;;;;;1.80;1.30;;;;;;;;;;5082819;28;20197;-81
2022/08/10 04:30:32;;;;;;;2.03;1.93;;;;;;;;;;5073005;28;20197;-82
2022/08/10 04:33:02;;;;;;;4.60;2.33;;;;;;;;;;5062225;28;20202;-82
2022/08/10 04:35:32;;;;;;;4.50;2.97;;;;;;;;;;5071885;28;20249;-82
2022/08/10 04:38:03;;;;;;;3.33;3.03;;;;;;;;;;5056749;28;20225;-82
2022/08/10 04:40:32;;;;;;;1.03;0.93;;;;;;;;;;5075348;28;20219;-82
2022/08/10 04:43:01;;;;;;;3.17;2.37;;;;;;;;;;5074649;28;20213;-82
2022/08/10 04:45:37;;;;;;;1.50;1.40;;;;;;;;;;5093270;28;20197;-82
2022/08/10 04:48:19;;;;;;;0.77;0.77;;;;;;;;;;5057276;28;20197;-82
2022/08/10 04:51:08;;;;;;;1.20;1.03;;;;;;;;;;5075271;28;20193;-81
2022/08/10 04:53:43;;;;;;;2.60;2.40;;;;;;;;;;5068281;28;20284;-81
2022/08/10 04:56:32;;;;;;;1.30;1.20;;;;;;;;;;5076282;28;20236;-81
2022/08/10 04:59:00;;;;;;;1.83;1.43;;;;;;;;;;5091705;28;20304;-81
2022/08/10 05:01:31;;;;;;;1.80;1.63;;;;;;;;;;5070533;28;20203;-81
2022/08/10 05:04:21;;;;;;;18.67;3.77;;;;;;;;;;5076861;28;20267;-81
2022/08/10 05:07:06;;;;;;;2.00;1.57;;;;;;;;;;5096330;28;20193;-81
2022/08/10 05:09:36;;;;;;;1.83;1.73;;;;;;;;;;5075078;28;20207;-82
2022/08/10 05:12:24;;;;;;;3.30;2.63;;;;;;;;;;5076954;28;20206;-82
2022/08/10 05:14:53;;;;;;;4.53;1.93;;;;;;;;;;5084491;28;20266;-81
2022/08/10 05:17:22;;;;;;;1.53;1.43;;;;;;;;;;5060882;28;20195;-81
2022/08/10 05:19:51;;;;;;;1.43;1.33;;;;;;;;;;5089589;28;20189;-81
2022/08/10 05:22:32;;;;;;;1.40;1.30;;;;;;;;;;5084710;28;20285;-81
2022/08/10 05:25:02;;;;;;;2.10;1.33;;;;;;;;;;5089703;28;20199;-82
2022/08/10 05:27:30;;;;;;;2.73;2.50;;;;;;;;;;5081376;28;20195;-81
2022/08/10 05:29:59;;;;;;;2.83;2.07;;;;;;;;;;5076601;28;20250;-81
2022/08/10 05:32:30;;;;;;;2.23;2.03;;;;;;;;;;5078330;28;20212;-81
2022/08/10 05:35:01;;;;;;;1.50;1.40;;;;;;;;;;5074110;28;20216;-81
2022/08/10 05:37:30;;;;;;;2.03;1.40;;;;;;;;;;5068569;28;20244;-81
2022/08/10 05:40:21;;;;;;;6.30;2.37;;;;;;;;;;5077452;28;20250;-81
2022/08/10 05:42:49;;;;;;;2.73;2.50;;;;;;;;;;5077285;28;20215;-81
2022/08/10 05:45:21;;;;;;;2.10;1.93;;;;;;;;;;5070113;28;20240;-81
2022/08/10 05:47:50;;;;;;;2.33;2.13;;;;;;;;;;5060897;28;20207;-81
2022/08/10 05:50:38;;;;;;;7.23;4.00;;;;;;;;;;5096274;28;20197;-81
2022/08/10 05:53:07;;;;;;;3.97;2.67;;;;;;;;;;5071731;28;20294;-82
2022/08/10 05:55:57;;;;;;;2.40;2.03;;;;;;;;;;5059618;28;20214;-82
2022/08/10 05:58:25;;;;;;;1.60;1.60;;;;;;;;;;5076903;28;20217;-82
2022/08/10 06:00:56;;;;;;;0.97;0.93;;;;;;;;;;5091081;28;20201;-81
2022/08/10 06:03:26;;;;;;;19.33;2.10;;;;;;;;;;5069922;28;20200;-81
2022/08/10 06:05:55;;;;;;;3.63;2.97;;;;;;;;;;5095691;28;20265;-81
2022/08/10 06:08:27;;;;;;;1.93;1.47;;;;;;;;;;5079049;28;20215;-81
2022/08/10 06:11:00;;;;;;;1.90;1.47;;;;;;;;;;5072955;28;20286;-81
2022/08/10 06:16:44;;;;;;;2.23;2.13;;;;;;;;;;5090289;28;20212;-81
2022/08/10 06:19:12;;;;;;;3.17;2.60;;;;;;;;;;5072622;28;20202;-81
2022/08/10 06:21:43;;;;;;;2.90;2.37;;;;;;;;;;5091547;28;20296;-81
2022/08/10 06:24:29;;;;;;;6.10;3.87;;;;;;;;;;5076285;28;20231;-82
2022/08/10 06:27:00;;;;;;;2.33;2.10;;;;;;;;;;5080521;28;20196;-81
2022/08/10 06:29:30;;;;;;;2.60;2.40;;;;;;;;;;5106084;28;20208;-81
2022/08/10 06:31:59;;;;;;;4.53;3.00;;;;;;;;;;5065483;28;20294;-80
2022/08/10 06:34:29;;;;;;;2.17;2.00;;;;;;;;;;5067849;28;20207;-80
2022/08/10 06:36:59;;;;;;;6.63;4.90;;;;;;;;;;5057738;28;20226;-80
2022/08/10 06:39:28;;;;;;;8.00;5.23;;;;;;;;;;5075730;28;20255;-81
2022/08/10 06:42:06;;;;;;;9.67;7.37;;;;;;;;;;5067922;28;20216;-81
2022/08/10 06:44:56;;;;;;;6.30;4.47;;;;;;;;;;5069447;28;20203;-80
2022/08/10 06:47:27;;;;;;;1.63;1.03;;;;;;;;;;5056370;28;20202;-80
2022/08/10 06:49:57;;;;;;;11.63;8.57;;;;;;;;;;5059019;28;20192;-80
2022/08/10 06:52:29;;;;;;;3.63;3.23;;;;;;;;;;5062764;28;20204;-80
2022/08/10 06:54:59;;;;;;;6.90;4.30;;;;;;;;;;5080745;28;20211;-80
2022/08/10 06:57:31;;;;;;;11.03;5.67;;;;;;;;;;5076140;28;20223;-80
2022/08/10 07:00:02;;;;;;;6.70;4.17;;;;;;;;;;5094419;28;20196;-80
2022/08/10 07:02:37;;;;;;;4.93;3.87;;;;;;;;;;5093354;28;20209;-80
2022/08/10 07:05:07;;;;;;;1.53;1.43;;;;;;;;;;5066367;28;20201;-80
2022/08/10 07:07:37;;;;;;;14.67;8.70;;;;;;;;;;5073790;28;20246;-81
2022/08/10 07:10:06;;;;;;;11.47;7.43;;;;;;;;;;5072779;28;20278;-80
2022/08/10 07:12:37;;;;;;;5.60;4.50;;;;;;;;;;5072351;28;20205;-80
2022/08/10 07:15:07;;;;;;;12.83;6.97;;;;;;;;;;5065353;28;20232;-81
2022/08/10 07:17:37;;;;;;;9.97;6.17;;;;;;;;;;5086935;28;20215;-80
2022/08/10 07:20:08;;;;;;;9.10;5.53;;;;;;;;;;5087139;28;20215;-81
2022/08/10 07:22:37;;;;;;;7.20;5.10;;;;;;;;;;5093790;28;20223;-80
2022/08/10 07:25:28;;;;;;;9.53;5.90;;;;;;;;;;5072010;28;20250;-80
2022/08/10 07:27:58;;;;;;;9.87;6.97;;;;;;;;;;5076065;28;20215;-81
2022/08/10 07:30:30;;;;;;;9.97;6.93;;;;;;;;;;5075529;28;20211;-80
2022/08/10 07:32:59;;;;;;;2.20;2.00;;;;;;;;;;5093276;28;20253;-80
2022/08/10 07:35:28;;;;;;;6.37;3.73;;;;;;;;;;5082542;28;20259;-80
2022/08/10 07:38:05;;;;;;;2.00;1.73;;;;;;;;;;5070395;28;20232;-80
2022/08/10 07:40:34;;;;;;;5.23;4.30;;;;;;;;;;5067672;28;20220;-80
2022/08/10 07:43:05;;;;;;;6.50;4.47;;;;;;;;;;5064218;28;20206;-80
2022/08/10 07:45:34;;;;;;;4.93;3.30;;;;;;;;;;5080043;28;20222;-80
2022/08/10 07:48:04;;;;;;;4.70;3.40;;;;;;;;;;5072941;28;20232;-80
2022/08/10 07:50:37;;;;;;;3.60;3.00;;;;;;;;;;5089830;28;20206;-79
2022/08/10 07:53:07;;;;;;;4.57;1.80;;;;;;;;;;5078687;28;20222;-79
2022/08/10 07:55:37;;;;;;;3.63;3.20;;;;;;;;;;5074330;28;20201;-80
2022/08/10 07:58:29;;;;;;;4.53;3.27;;;;;;;;;;5072559;28;20199;-80
2022/08/10 08:00:59;;;;;;;3.80;2.57;;;;;;;;;;5064037;28;20209;-80
2022/08/10 08:03:28;;;;;;;2.93;2.63;;;;;;;;;;5051060;28;20212;-80
2022/08/10 08:05:58;;;;;;;5.47;3.30;;;;;;;;;;5070887;28;20245;-80
2022/08/10 08:08:33;;;;;;;0.77;0.77;;;;;;;;;;5059938;28;20197;-82
2022/08/10 08:11:02;;;;;;;4.80;1.90;;;;;;;;;;5069644;28;20213;-82
2022/08/10 08:13:32;;;;;;;3.23;2.77;;;;;;;;;;5059805;28;20198;-82
2022/08/10 08:16:03;;;;;;;3.43;2.43;;;;;;;;;;5085708;28;20233;-81
2022/08/10 08:18:50;;;;;;;3.73;2.20;;;;;;;;;;5074565;28;20246;-85
2022/08/10 08:21:41;;;;;;;2.40;2.00;;;;;;;;;;5076928;28;20224;-83
2022/08/10 08:24:30;;;;;;;2.90;2.63;;;;;;;;;;5074274;28;20195;-82
2022/08/10 08:27:02;;;;;;;6.57;4.40;;;;;;;;;;5083312;28;20197;-83
2022/08/10 08:29:34;;;;;;;1.40;1.30;;;;;;;;;;5061503;28;20202;-82
2022/08/10 08:32:03;;;;;;;0.83;0.83;;;;;;;;;;5085645;28;20208;-82
2022/08/10 08:34:32;;;;;;;0.30;0.30;;;;;;;;;;5067294;28;20319;-81
2022/08/10 08:37:01;;;;;;;1.90;1.57;;;;;;;;;;5063724;28;20242;-82
2022/08/10 08:39:31;;;;;;;0.40;0.40;;;;;;;;;;5070458;28;20235;-81
2022/08/10 08:42:14;;;;;;;2.40;2.20;;;;;;;;;;5078065;28;20240;-82
2022/08/10 08:44:57;;;;;;;3.17;2.83;;;;;;;;;;5074984;28;20296;-84
2022/08/10 08:47:38;;;;;;;1.80;1.70;;;;;;;;;;5061609;28;20312;-83
2022/08/10 08:50:32;;;;;;;5.30;2.53;;;;;;;;;;5065970;28;20221;-82
2022/08/10 08:53:11;;;;;;;3.00;0.90;;;;;;;;;;5079065;28;20200;-82
2022/08/10 08:55:51;;;;;;;1.57;1.43;;;;;;;;;;5072906;28;20210;-83
2022/08/10 08:58:37;;;;;;;2.00;1.77;;;;;;;;;;5091530;28;20204;-82
2022/08/10 09:01:15;;;;;;;3.00;2.33;;;;;;;;;;5073258;28;20292;-82
2022/08/10 09:03:52;;;;;;;5.70;3.70;;;;;;;;;;5069364;28;20226;-82
2022/08/10 09:06:32;;;;;;;0.83;0.83;;;;;;;;;;5068258;28;20192;-82
2022/08/10 09:09:16;;;;;;;1.20;1.10;;;;;;;;;;5073313;28;20210;-82
2022/08/10 09:11:51;;;;;;;3.60;3.03;;;;;;;;;;5061839;28;20197;-82
2022/08/10 09:14:22;;;;;;;1.80;1.47;;;;;;;;;;5073523;28;20295;-82
2022/08/10 09:16:57;;;;;;;2.30;2.07;;;;;;;;;;5071165;28;20222;-82
2022/08/10 09:19:31;;;;;;;1.63;1.10;;;;;;;;;;5073542;28;20218;-83
2022/08/10 09:22:08;;;;;;;1.47;1.37;;;;;;;;;;5061036;28;20231;-82
2022/08/10 09:24:46;;;;;;;4.47;2.73;;;;;;;;;;5070020;28;20299;-80
2022/08/10 09:27:19;;;;;;;2.17;1.57;;;;;;;;;;5088025;28;20196;-81
2022/08/10 09:29:54;;;;;;;2.63;1.37;;;;;;;;;;5078963;28;20234;-83
2022/08/10 09:32:32;;;;;;;2.30;2.10;;;;;;;;;;5065841;28;20211;-83
2022/08/10 09:35:24;;;;;;;1.03;1.03;;;;;;;;;;5066758;28;20340;-81
2022/08/10 09:38:18;;;;;;;2.97;2.20;;;;;;;;;;5077134;28;20244;-83
2022/08/10 09:40:49;;;;;;;1.40;1.37;;;;;;;;;;5065823;28;20210;-80
2022/08/10 09:43:42;;;;;;;1.33;1.23;;;;;;;;;;5072799;28;20204;-81
2022/08/10 09:46:16;;;;;;;2.43;2.23;;;;;;;;;;5077955;28;20215;-81
2022/08/10 09:48:55;;;;;;;1.00;1.00;;;;;;;;;;5077726;28;20188;-81
2022/08/10 09:51:29;;;;;;;2.77;1.17;;;;;;;;;;5077956;28;20199;-81
2022/08/10 09:54:22;;;;;;;3.77;2.73;;;;;;;;;;5064435;28;20276;-80
2022/08/10 09:56:57;;;;;;;1.27;1.17;;;;;;;;;;5057872;28;20200;-80
2022/08/10 09:59:48;;;;;;;0.97;0.97;;;;;;;;;;5081606;28;20212;-80
2022/08/10 10:02:35;;;;;;;1.43;1.33;;;;;;;;;;5062548;28;20226;-81
2022/08/10 10:05:10;;;;;;;2.07;1.80;;;;;;;;;;5065277;28;20216;-83
2022/08/10 10:07:40;;;;;;;5.63;2.10;;;;;;;;;;5081965;28;20199;-80
2022/08/10 10:10:11;;;;;;;2.27;1.30;;;;;;;;;;5069357;28;20208;-79
2022/08/10 10:12:45;;;;;;;1.57;1.03;;;;;;;;;;5063061;28;20201;-80
2022/08/10 10:15:21;;;;;;;1.27;1.20;;;;;;;;;;5078351;28;20212;-80
2022/08/10 10:18:08;;;;;;;0.70;0.70;;;;;;;;;;5066875;28;20300;-80
2022/08/10 10:20:41;;;;;;;1.10;0.50;;;;;;;;;;5058270;28;20262;-80
2022/08/10 10:23:14;;;;;;;0.40;0.40;;;;;;;;;;5083302;28;20193;-79
2022/08/10 10:25:45;;;;;;;0.90;0.90;;;;;;;;;;5069058;28;20225;-80
2022/08/10 10:28:27;;;;;;;0.40;0.40;;;;;;;;;;5088958;28;20206;-80
2022/08/10 10:31:19;;;;;;;0.90;0.90;;;;;;;;;;5071827;28;20274;-80
2022/08/10 10:33:52;;;;;;;4.63;0.97;;;;;;;;;;5091296;28;20202;-79
2022/08/10 10:36:22;;;;;;;3.27;1.70;;;;;;;;;;5071181;28;20217;-79
2022/08/10 10:38:53;;;;;;;1.60;1.50;;;;;;;;;;5075478;28;20244;-79
2022/08/10 10:41:30;;;;;;;2.63;1.77;;;;;;;;;;5073100;28;20194;-80
2022/08/10 10:44:30;;;;;;;2.23;2.13;;;;;;;;;;5070499;28;20255;-81
2022/08/10 10:47:01;;;;;;;2.33;1.40;;;;;;;;;;5070718;28;20200;-82
2022/08/10 10:49:37;;;;;;;1.03;1.03;;;;;;;;;;5075886;28;20225;-82
2022/08/10 10:52:15;;;;;;;1.00;1.00;;;;;;;;;;5087343;28;20231;-84
2022/08/10 10:54:51;;;;;;;0.60;0.60;;;;;;;;;;5070320;28;20233;-84
2022/08/10 10:57:23;;;;;;;0.83;0.83;;;;;;;;;;5060839;28;20198;-80
2022/08/10 11:00:12;;;;;;;2.20;1.33;;;;;;;;;;5081284;28;20202;-81
2022/08/10 11:02:54;;;;;;;3.07;1.30;;;;;;;;;;5068111;28;20202;-84
2022/08/10 11:05:27;;;;;;;1.13;1.03;;;;;;;;;;5059884;28;20199;-84
2022/08/10 11:07:59;;;;;;;0.40;0.40;;;;;;;;;;5073081;28;20208;-83
2022/08/10 11:10:31;;;;;;;0.60;0.60;;;;;;;;;;5070485;28;20279;-81
2022/08/10 11:13:12;;;;;;;0.70;0.70;;;;;;;;;;5076755;28;20258;-80
2022/08/10 11:16:06;;;;;;;0.70;0.70;;;;;;;;;;5063436;28;20194;-80
2022/08/10 11:18:39;;;;;;;1.00;1.00;;;;;;;;;;5070228;28;20205;-80
2022/08/10 11:21:14;;;;;;;0.63;0.63;;;;;;;;;;5067015;28;20197;-80
2022/08/10 11:23:47;;;;;;;0.67;0.67;;;;;;;;;;5074587;28;20293;-88
2022/08/10 11:26:42;;;;;;;0.50;0.50;;;;;;;;;;5064633;28;20204;-87
2022/08/10 11:29:16;;;;;;;0.30;0.30;;;;;;;;;;5073860;28;20201;-88
2022/08/10 11:31:48;;;;;;;0.50;0.50;;;;;;;;;;5096214;28;20199;-88
2022/08/10 11:34:17;;;;;;;1.10;1.00;;;;;;;;;;5075622;28;20196;-86
2022/08/10 11:37:11;;;;;;;0.40;0.40;;;;;;;;;;5067591;28;20215;-84
2022/08/10 11:39:44;;;;;;;1.70;1.13;;;;;;;;;;5074188;28;20214;-82
2022/08/10 11:42:20;;;;;;;0.90;0.90;;;;;;;;;;5065564;28;20208;-83
2022/08/10 11:45:04;;;;;;;0.77;0.77;;;;;;;;;;5070774;28;20202;-82
2022/08/10 11:47:36;;;;;;;0.73;0.73;;;;;;;;;;5062644;28;20202;-85
2022/08/10 11:50:09;;;;;;;1.30;1.20;;;;;;;;;;5067830;28;20205;-83
2022/08/10 11:52:41;;;;;;;1.60;1.53;;;;;;;;;;5065835;28;20208;-82
2022/08/10 11:55:14;;;;;;;0.77;0.70;;;;;;;;;;5089774;28;20195;-82
2022/08/10 11:57:44;;;;;;;0.37;0.37;;;;;;;;;;5070574;28;20231;-82
2022/08/10 12:00:22;;;;;;;2.53;1.30;;;;;;;;;;5065215;28;20198;-82
2022/08/10 12:02:52;;;;;;;3.97;0.83;;;;;;;;;;5071477;28;20294;-84
2022/08/10 12:05:23;;;;;;;0.80;0.80;;;;;;;;;;5081157;28;20220;-83
2022/08/10 12:08:12;;;;;;;0.67;0.53;;;;;;;;;;5090512;28;20196;-83
2022/08/10 12:11:02;;;;;;;0.97;0.87;;;;;;;;;;5070940;28;20294;-83
2022/08/10 12:13:37;;;;;;;1.10;1.00;;;;;;;;;;5055409;28;20208;-82
2022/08/10 12:16:07;;;;;;;1.00;1.00;;;;;;;;;;5064675;28;20230;-82
2022/08/10 12:18:44;;;;;;;0.90;0.83;;;;;;;;;;5065364;28;20210;-84
2022/08/10 12:21:16;;;;;;;0.30;0.30;;;;;;;;;;5051117;28;20226;-85
2022/08/10 12:23:51;;;;;;;1.50;0.93;;;;;;;;;;5065708;28;20205;-82
2022/08/10 12:26:37;;;;;;;0.80;0.80;;;;;;;;;;5065819;28;20211;-84
2022/08/10 12:29:11;;;;;;;1.40;0.97;;;;;;;;;;5081412;28;20207;-84
2022/08/10 12:31:43;;;;;;;0.50;0.50;;;;;;;;;;5065317;28;20213;-82
2022/08/10 12:34:17;;;;;;;1.00;1.00;;;;;;;;;;5069991;28;20204;-84
2022/08/10 12:36:48;;;;;;;2.10;1.00;;;;;;;;;;5078602;28;20189;-83
2022/08/10 12:39:22;;;;;;;0.90;0.90;;;;;;;;;;5088099;28;20253;-84
2022/08/10 12:41:56;;;;;;;2.13;2.03;;;;;;;;;;5066386;28;20195;-85
2022/08/10 12:44:29;;;;;;;0.50;0.50;;;;;;;;;;5067940;28;20242;-85
2022/08/10 12:47:15;;;;;;;0.20;0.20;;;;;;;;;;5069509;28;20204;-83
2022/08/10 12:49:50;;;;;;;0.73;0.73;;;;;;;;;;5066092;28;20279;-84
2022/08/10 12:52:43;;;;;;;0.50;0.50;;;;;;;;;;5064163;28;20229;-82
2022/08/10 12:55:12;;;;;;;0.60;0.60;;;;;;;;;;5058279;28;20203;-87
2022/08/10 12:57:44;;;;;;;1.17;1.07;;;;;;;;;;5063438;28;20200;-85
2022/08/10 13:00:14;;;;;;;0.30;0.30;;;;;;;;;;5064038;28;20220;-84
2022/08/10 13:02:45;;;;;;;0.37;0.37;;;;;;;;;;5063758;28;20203;-84
2022/08/10 13:05:16;;;;;;;1.63;0.90;;;;;;;;;;5067395;28;20201;-85
2022/08/10 13:07:46;;;;;;;0.73;0.73;;;;;;;;;;5058998;28;20222;-84
2022/08/10 13:10:42;;;;;;;0.27;0.27;;;;;;;;;;5083980;28;20207;-84
2022/08/10 13:13:14;;;;;;;2.27;0.77;;;;;;;;;;5085581;28;20189;-85
2022/08/10 13:15:48;;;;;;;1.27;0.67;;;;;;;;;;5069138;28;20216;-84
2022/08/10 13:18:23;;;;;;;0.93;0.93;;;;;;;;;;5071106;28;20208;-85
2022/08/10 13:20:53;;;;;;;0.23;0.23;;;;;;;;;;5057022;28;20242;-84
2022/08/10 13:23:22;;;;;;;3.03;1.10;;;;;;;;;;5074769;28;20201;-84
2022/08/10 13:25:52;;;;;;;0.60;0.60;;;;;;;;;;5084987;28;20208;-84
2022/08/10 13:28:25;;;;;;;0.33;0.23;;;;;;;;;;5077761;28;20203;-85
2022/08/10 13:31:09;;;;;;;0.67;0.67;;;;;;;;;;5079988;28;20204;-84
2022/08/10 13:33:41;;;;;;;0.67;0.67;;;;;;;;;;5074332;28;20463;-85
2022/08/10 13:36:31;;;;;;;1.07;0.97;;;;;;;;;;5060402;28;20237;-83
2022/08/10 13:39:00;;;;;;;1.23;0.77;;;;;;;;;;5071671;28;20249;-84
2022/08/10 13:41:30;;;;;;;0.40;0.40;;;;;;;;;;5067103;28;20445;-81
2022/08/10 13:44:00;;;;;;;0.70;0.70;;;;;;;;;;5060707;28;20209;-82
2022/08/10 13:46:29;;;;;;;0.20;0.20;;;;;;;;;;5067209;28;20280;-83
2022/08/10 13:49:00;;;;;;;1.10;0.80;;;;;;;;;;5057366;28;20202;-85
2022/08/10 13:51:31;;;;;;;1.27;1.17;;;;;;;;;;5059437;28;20203;-84
2022/08/10 13:54:20;;;;;;;1.23;0.77;;;;;;;;;;5071548;28;20208;-82
2022/08/10 13:56:50;;;;;;;4.97;1.07;;;;;;;;;;5088745;28;20196;-81
2022/08/10 13:59:20;;;;;;;1.60;1.50;;;;;;;;;;5068532;28;20208;-81
2022/08/10 14:01:50;;;;;;;0.80;0.80;;;;;;;;;;5063755;28;20315;-84
2022/08/10 14:04:19;;;;;;;0.50;0.50;;;;;;;;;;5071476;28;20223;-82
2022/08/10 14:06:53;;;;;;;8.47;2.33;;;;;;;;;;5083426;28;20205;-83
2022/08/10 14:09:24;;;;;;;0.43;0.40;;;;;;;;;;5072334;28;20204;-80
2022/08/10 14:11:54;;;;;;;0.40;0.40;;;;;;;;;;5086666;28;20275;-82
2022/08/10 14:14:28;;;;;;;0.87;0.87;;;;;;;;;;5072228;28;20342;-85
2022/08/10 14:16:57;;;;;;;1.00;0.90;;;;;;;;;;5066509;28;20211;-82
2022/08/10 14:19:28;;;;;;;0.57;0.57;;;;;;;;;;5083978;28;20227;-86
2022/08/10 14:21:56;;;;;;;0.70;0.70;;;;;;;;;;5075268;28;20197;-86
2022/08/10 14:24:25;;;;;;;0.37;0.37;;;;;;;;;;5065988;28;20216;-83
2022/08/10 14:26:59;;;;;;;0.63;0.50;;;;;;;;;;5068620;28;20201;-82
2022/08/10 14:29:29;;;;;;;0.90;0.90;;;;;;;;;;5065828;28;20204;-84
2022/08/10 14:31:59;;;;;;;1.47;1.20;;;;;;;;;;5067716;28;20298;-85
2022/08/10 14:34:31;;;;;;;0.87;0.83;;;;;;;;;;5071153;28;20646;-87
2022/08/10 14:37:22;;;;;;;0.60;0.60;;;;;;;;;;5088726;28;20290;-82
2022/08/10 14:39:52;;;;;;;0.90;0.90;;;;;;;;;;5064988;28;20215;-82
2022/08/10 14:42:25;;;;;;;1.60;0.80;;;;;;;;;;5085370;28;20201;-83
2022/08/10 14:45:01;;;;;;;0.40;0.40;;;;;;;;;;5071577;28;20287;-82
2022/08/10 14:47:30;;;;;;;0.67;0.67;;;;;;;;;;5059482;28;20290;-83
2022/08/10 14:50:21;;;;;;;0.83;0.63;;;;;;;;;;5088839;28;20282;-82
2022/08/10 14:53:05;;;;;;;0.80;0.80;;;;;;;;;;5071726;28;20185;-82
2022/08/10 14:55:38;;;;;;;0.60;0.60;;;;;;;;;;5067934;28;20239;-82
2022/08/10 14:58:27;;;;;;;1.30;1.07;;;;;;;;;;5072349;28;20197;-82
2022/08/10 15:00:57;;;;;;;0.70;0.70;;;;;;;;;;5064264;28;20217;-82
2022/08/10 15:03:27;;;;;;;0.60;0.60;;;;;;;;;;5071283;28;20243;-82
2022/08/10 15:06:16;;;;;;;0.80;0.80;;;;;;;;;;5062963;28;20200;-82
2022/08/10 15:08:46;;;;;;;0.80;0.80;;;;;;;;;;5068918;28;20212;-82
2022/08/10 15:11:15;;;;;;;5.23;1.37;;;;;;;;;;5070961;28;20209;-82
2022/08/10 15:14:04;;;;;;;1.20;1.20;;;;;;;;;;5067944;28;20207;-82
2022/08/10 15:16:55;;;;;;;0.73;0.60;;;;;;;;;;5082376;28;20215;-82
2022/08/10 15:19:26;;;;;;;1.33;0.70;;;;;;;;;;5065780;28;20212;-82
2022/08/10 15:22:17;;;;;;;4.37;1.10;;;;;;;;;;5069927;28;20197;-82
2022/08/10 15:25:07;;;;;;;0.60;0.60;;;;;;;;;;5067437;28;20216;-83
2022/08/10 15:27:47;;;;;;;0.90;0.90;;;;;;;;;;5069764;28;20200;-82
2022/08/10 15:30:25;;;;;;;3.03;0.97;;;;;;;;;;5072382;28;20206;-82
2022/08/10 15:38:58;;;;;;;1.30;1.00;;;;;;;;;;5085035;28;20250;-83